sensor_id;sensor_type;location;lat;lon;timestamp;P1;P4;P2;P0;N10;N4;N25;N1;N05;TS
40102;SPS30;25814;48.550;9.108;2023-06-26T00:01:27;0.00;0.00;0.00;0.00;0.00;0.00;0.00;0.00;0.00;1.52
40102;SPS30;25814;48.550;9.108;2023-06-26T00:04:00;0.00;0.00;0.00;0.00;0.00;0.00;0.00;0.00;0.00;1.52
40102;SPS30;25814;48.550;9.108;2023-06-26T00:06:26;0.00;0.00;0.00;0.00;0.00;0.00;0.00;0.00;0.00;1.52
40102;SPS30;25814;48.550;9.108;2023-06-26T00:08:53;0.00;0.00;0.00;0.00;0.00;0.00;0.00;0.00;0.00;1.52
40102;SPS30;25814;48.550;9.108;2023-06-26T00:11:21;0.00;0.00;0.00;0.00;0.00;0.00;0.00;0.00;0.00;1.52
40102;SPS30;25814;48.550;9.108;2023-06-26T00:13:47;0.00;0.00;0.00;0.00;0.00;0.00;0.00;0.00;0.00;1.52
40102;SPS30;25814;48.550;9.108;2023-06-26T00:16:13;0.00;0.00;0.00;0.00;0.00;0.00;0.00;0.00;0.00;1.52
40102;SPS30;25814;48.550;9.108;2023-06-26T00:18:39;0.00;0.00;0.00;0.00;0.00;0.00;0.00;0.00;0.00;1.52
40102;SPS30;25814;48.550;9.108;2023-06-26T00:21:05;0.00;0.00;0.00;0.00;0.00;0.00;0.00;0.00;0.00;1.52
40102;SPS30;25814;48.550;9.108;2023-06-26T00:23:31;0.00;0.00;0.00;0.00;0.00;0.00;0.00;0.00;0.00;1.52
40102;SPS30;25814;48.550;9.108;2023-06-26T00:26:04;0.00;0.00;0.00;0.00;0.00;0.00;0.00;0.00;0.00;1.52
40102;SPS30;25814;48.550;9.108;2023-06-26T00:28:30;0.00;0.00;0.00;0.00;0.00;0.00;0.00;0.00;0.00;1.52
40102;SPS30;25814;48.550;9.108;2023-06-26T00:30:56;0.00;0.00;0.00;0.00;0.00;0.00;0.00;0.00;0.00;1.52
40102;SPS30;25814;48.550;9.108;2023-06-26T00:33:22;0.00;0.00;0.00;0.00;0.00;0.00;0.00;0.00;0.00;1.52
40102;SPS30;25814;48.550;9.108;2023-06-26T00:35:48;0.00;0.00;0.00;0.00;0.00;0.00;0.00;0.00;0.00;1.52
40102;SPS30;25814;48.550;9.108;2023-06-26T00:38:14;0.00;0.00;0.00;0.00;0.00;0.00;0.00;0.00;0.00;1.52
40102;SPS30;25814;48.550;9.108;2023-06-26T00:40:41;0.00;0.00;0.00;0.00;0.00;0.00;0.00;0.00;0.00;1.52
40102;SPS30;25814;48.550;9.108;2023-06-26T00:43:07;0.00;0.00;0.00;0.00;0.00;0.00;0.00;0.00;0.00;1.52
40102;SPS30;25814;48.550;9.108;2023-06-26T00:45:33;0.00;0.00;0.00;0.00;0.00;0.00;0.00;0.00;0.00;1.52
40102;SPS30;25814;48.550;9.108;2023-06-26T00:47:59;0.00;0.00;0.00;0.00;0.00;0.00;0.00;0.00;0.00;1.52
40102;SPS30;25814;48.550;9.108;2023-06-26T00:50:25;0.00;0.00;0.00;0.00;0.00;0.00;0.00;0.00;0.00;1.52
40102;SPS30;25814;48.550;9.108;2023-06-26T00:52:51;0.00;0.00;0.00;0.00;0.00;0.00;0.00;0.00;0.00;1.52
40102;SPS30;25814;48.550;9.108;2023-06-26T00:55:19;0.00;0.00;0.00;0.00;0.00;0.00;0.00;0.00;0.00;1.52
40102;SPS30;25814;48.550;9.108;2023-06-26T00:57:45;0.00;0.00;0.00;0.00;0.00;0.00;0.00;0.00;0.00;1.52
40102;SPS30;25814;48.550;9.108;2023-06-26T01:00:12;0.00;0.00;0.00;0.00;0.00;0.00;0.00;0.00;0.00;1.52
40102;SPS30;25814;48.550;9.108;2023-06-26T01:02:38;0.00;0.00;0.00;0.00;0.00;0.00;0.00;0.00;0.00;1.52
40102;SPS30;25814;48.550;9.108;2023-06-26T01:05:04;0.00;0.00;0.00;0.00;0.00;0.00;0.00;0.00;0.00;1.52
40102;SPS30;25814;48.550;9.108;2023-06-26T01:07:32;0.00;0.00;0.00;0.00;0.00;0.00;0.00;0.00;0.00;1.52
40102;SPS30;25814;48.550;9.108;2023-06-26T01:10:07;0.00;0.00;0.00;0.00;0.00;0.00;0.00;0.00;0.00;1.52
40102;SPS30;25814;48.550;9.108;2023-06-26T01:12:33;0.00;0.00;0.00;0.00;0.00;0.00;0.00;0.00;0.00;1.52
40102;SPS30;25814;48.550;9.108;2023-06-26T01:14:59;0.00;0.00;0.00;0.00;0.00;0.00;0.00;0.00;0.00;1.52
40102;SPS30;25814;48.550;9.108;2023-06-26T01:17:27;0.00;0.00;0.00;0.00;0.00;0.00;0.00;0.00;0.00;1.52
40102;SPS30;25814;48.550;9.108;2023-06-26T01:20:00;0.00;0.00;0.00;0.00;0.00;0.00;0.00;0.00;0.00;1.52
40102;SPS30;25814;48.550;9.108;2023-06-26T01:22:34;0.00;0.00;0.00;0.00;0.00;0.00;0.00;0.00;0.00;1.52
40102;SPS30;25814;48.550;9.108;2023-06-26T01:25:29;0.00;0.00;0.00;0.00;0.00;0.00;0.00;0.00;0.00;1.52
40102;SPS30;25814;48.550;9.108;2023-06-26T01:28:03;0.00;0.00;0.00;0.00;0.00;0.00;0.00;0.00;0.00;1.52
40102;SPS30;25814;48.550;9.108;2023-06-26T01:30:31;0.00;0.00;0.00;0.00;0.00;0.00;0.00;0.00;0.00;1.52
40102;SPS30;25814;48.550;9.108;2023-06-26T01:32:58;0.00;0.00;0.00;0.00;0.00;0.00;0.00;0.00;0.00;1.52
40102;SPS30;25814;48.550;9.108;2023-06-26T01:35:26;0.00;0.00;0.00;0.00;0.00;0.00;0.00;0.00;0.00;1.52
40102;SPS30;25814;48.550;9.108;2023-06-26T01:37:53;0.00;0.00;0.00;0.00;0.00;0.00;0.00;0.00;0.00;1.52
40102;SPS30;25814;48.550;9.108;2023-06-26T01:40:19;0.00;0.00;0.00;0.00;0.00;0.00;0.00;0.00;0.00;1.52
40102;SPS30;25814;48.550;9.108;2023-06-26T01:42:45;0.00;0.00;0.00;0.00;0.00;0.00;0.00;0.00;0.00;1.52
40102;SPS30;25814;48.550;9.108;2023-06-26T01:45:44;0.00;0.00;0.00;0.00;0.00;0.00;0.00;0.00;0.00;1.52
40102;SPS30;25814;48.550;9.108;2023-06-26T01:48:04;0.00;0.00;0.00;0.00;0.00;0.00;0.00;0.00;0.00;1.52
40102;SPS30;25814;48.550;9.108;2023-06-26T01:50:37;0.00;0.00;0.00;0.00;0.00;0.00;0.00;0.00;0.00;1.52
40102;SPS30;25814;48.550;9.108;2023-06-26T01:53:12;0.00;0.00;0.00;0.00;0.00;0.00;0.00;0.00;0.00;1.52
40102;SPS30;25814;48.550;9.108;2023-06-26T01:55:50;0.00;0.00;0.00;0.00;0.00;0.00;0.00;0.00;0.00;1.52
40102;SPS30;25814;48.550;9.108;2023-06-26T01:58:22;0.00;0.00;0.00;0.00;0.00;0.00;0.00;0.00;0.00;1.52
40102;SPS30;25814;48.550;9.108;2023-06-26T02:00:50;0.00;0.00;0.00;0.00;0.00;0.00;0.00;0.00;0.00;1.52
40102;SPS30;25814;48.550;9.108;2023-06-26T02:03:16;0.00;0.00;0.00;0.00;0.00;0.00;0.00;0.00;0.00;1.52
40102;SPS30;25814;48.550;9.108;2023-06-26T02:05:42;0.00;0.00;0.00;0.00;0.00;0.00;0.00;0.00;0.00;1.52
40102;SPS30;25814;48.550;9.108;2023-06-26T02:08:09;0.00;0.00;0.00;0.00;0.00;0.00;0.00;0.00;0.00;1.52
40102;SPS30;25814;48.550;9.108;2023-06-26T02:10:36;0.00;0.00;0.00;0.00;0.00;0.00;0.00;0.00;0.00;1.52
40102;SPS30;25814;48.550;9.108;2023-06-26T02:13:02;0.00;0.00;0.00;0.00;0.00;0.00;0.00;0.00;0.00;1.52
40102;SPS30;25814;48.550;9.108;2023-06-26T02:15:28;0.00;0.00;0.00;0.00;0.00;0.00;0.00;0.00;0.00;1.52
40102;SPS30;25814;48.550;9.108;2023-06-26T02:17:54;0.00;0.00;0.00;0.00;0.00;0.00;0.00;0.00;0.00;1.52
40102;SPS30;25814;48.550;9.108;2023-06-26T02:20:20;0.00;0.00;0.00;0.00;0.00;0.00;0.00;0.00;0.00;1.52
40102;SPS30;25814;48.550;9.108;2023-06-26T02:22:46;0.00;0.00;0.00;0.00;0.00;0.00;0.00;0.00;0.00;1.52
40102;SPS30;25814;48.550;9.108;2023-06-26T02:25:12;0.00;0.00;0.00;0.00;0.00;0.00;0.00;0.00;0.00;1.52
40102;SPS30;25814;48.550;9.108;2023-06-26T02:27:38;0.00;0.00;0.00;0.00;0.00;0.00;0.00;0.00;0.00;1.52
40102;SPS30;25814;48.550;9.108;2023-06-26T02:30:04;0.00;0.00;0.00;0.00;0.00;0.00;0.00;0.00;0.00;1.52
40102;SPS30;25814;48.550;9.108;2023-06-26T02:32:31;0.00;0.00;0.00;0.00;0.00;0.00;0.00;0.00;0.00;1.52
40102;SPS30;25814;48.550;9.108;2023-06-26T02:34:57;0.00;0.00;0.00;0.00;0.00;0.00;0.00;0.00;0.00;1.52
40102;SPS30;25814;48.550;9.108;2023-06-26T02:37:23;0.00;0.00;0.00;0.00;0.00;0.00;0.00;0.00;0.00;1.52
40102;SPS30;25814;48.550;9.108;2023-06-26T02:39:49;0.00;0.00;0.00;0.00;0.00;0.00;0.00;0.00;0.00;1.52
40102;SPS30;25814;48.550;9.108;2023-06-26T02:42:15;0.00;0.00;0.00;0.00;0.00;0.00;0.00;0.00;0.00;1.52
40102;SPS30;25814;48.550;9.108;2023-06-26T02:44:41;0.00;0.00;0.00;0.00;0.00;0.00;0.00;0.00;0.00;1.52
40102;SPS30;25814;48.550;9.108;2023-06-26T02:47:07;0.00;0.00;0.00;0.00;0.00;0.00;0.00;0.00;0.00;1.52
40102;SPS30;25814;48.550;9.108;2023-06-26T02:49:33;0.00;0.00;0.00;0.00;0.00;0.00;0.00;0.00;0.00;1.52
40102;SPS30;25814;48.550;9.108;2023-06-26T02:51:59;0.00;0.00;0.00;0.00;0.00;0.00;0.00;0.00;0.00;1.52
40102;SPS30;25814;48.550;9.108;2023-06-26T02:54:25;0.00;0.00;0.00;0.00;0.00;0.00;0.00;0.00;0.00;1.52
40102;SPS30;25814;48.550;9.108;2023-06-26T02:56:51;0.00;0.00;0.00;0.00;0.00;0.00;0.00;0.00;0.00;1.52
40102;SPS30;25814;48.550;9.108;2023-06-26T02:59:17;0.00;0.00;0.00;0.00;0.00;0.00;0.00;0.00;0.00;1.52
40102;SPS30;25814;48.550;9.108;2023-06-26T03:01:43;0.00;0.00;0.00;0.00;0.00;0.00;0.00;0.00;0.00;1.52
40102;SPS30;25814;48.550;9.108;2023-06-26T03:04:09;0.00;0.00;0.00;0.00;0.00;0.00;0.00;0.00;0.00;1.52
40102;SPS30;25814;48.550;9.108;2023-06-26T03:06:36;0.00;0.00;0.00;0.00;0.00;0.00;0.00;0.00;0.00;1.52
40102;SPS30;25814;48.550;9.108;2023-06-26T03:09:02;0.00;0.00;0.00;0.00;0.00;0.00;0.00;0.00;0.00;1.52
40102;SPS30;25814;48.550;9.108;2023-06-26T03:11:28;0.00;0.00;0.00;0.00;0.00;0.00;0.00;0.00;0.00;1.52
40102;SPS30;25814;48.550;9.108;2023-06-26T03:13:54;0.00;0.00;0.00;0.00;0.00;0.00;0.00;0.00;0.00;1.52
40102;SPS30;25814;48.550;9.108;2023-06-26T03:16:20;0.00;0.00;0.00;0.00;0.00;0.00;0.00;0.00;0.00;1.52
40102;SPS30;25814;48.550;9.108;2023-06-26T03:18:46;0.00;0.00;0.00;0.00;0.00;0.00;0.00;0.00;0.00;1.52
40102;SPS30;25814;48.550;9.108;2023-06-26T03:21:12;0.00;0.00;0.00;0.00;0.00;0.00;0.00;0.00;0.00;1.52
40102;SPS30;25814;48.550;9.108;2023-06-26T03:23:38;0.00;0.00;0.00;0.00;0.00;0.00;0.00;0.00;0.00;1.52
40102;SPS30;25814;48.550;9.108;2023-06-26T03:26:04;0.00;0.00;0.00;0.00;0.00;0.00;0.00;0.00;0.00;1.52
40102;SPS30;25814;48.550;9.108;2023-06-26T03:28:30;0.00;0.00;0.00;0.00;0.00;0.00;0.00;0.00;0.00;1.52
40102;SPS30;25814;48.550;9.108;2023-06-26T03:30:56;0.00;0.00;0.00;0.00;0.00;0.00;0.00;0.00;0.00;1.52
40102;SPS30;25814;48.550;9.108;2023-06-26T03:33:22;0.00;0.00;0.00;0.00;0.00;0.00;0.00;0.00;0.00;1.52
40102;SPS30;25814;48.550;9.108;2023-06-26T03:35:48;0.00;0.00;0.00;0.00;0.00;0.00;0.00;0.00;0.00;1.52
40102;SPS30;25814;48.550;9.108;2023-06-26T03:38:14;0.00;0.00;0.00;0.00;0.00;0.00;0.00;0.00;0.00;1.52
40102;SPS30;25814;48.550;9.108;2023-06-26T03:40:40;0.00;0.00;0.00;0.00;0.00;0.00;0.00;0.00;0.00;1.52
40102;SPS30;25814;48.550;9.108;2023-06-26T03:43:06;0.00;0.00;0.00;0.00;0.00;0.00;0.00;0.00;0.00;1.52
40102;SPS30;25814;48.550;9.108;2023-06-26T03:45:32;0.00;0.00;0.00;0.00;0.00;0.00;0.00;0.00;0.00;1.52
40102;SPS30;25814;48.550;9.108;2023-06-26T03:47:58;0.00;0.00;0.00;0.00;0.00;0.00;0.00;0.00;0.00;1.52
40102;SPS30;25814;48.550;9.108;2023-06-26T03:50:24;0.00;0.00;0.00;0.00;0.00;0.00;0.00;0.00;0.00;1.52
40102;SPS30;25814;48.550;9.108;2023-06-26T03:52:50;0.00;0.00;0.00;0.00;0.00;0.00;0.00;0.00;0.00;1.52
40102;SPS30;25814;48.550;9.108;2023-06-26T03:55:17;0.00;0.00;0.00;0.00;0.00;0.00;0.00;0.00;0.00;1.52
40102;SPS30;25814;48.550;9.108;2023-06-26T03:57:43;0.00;0.00;0.00;0.00;0.00;0.00;0.00;0.00;0.00;1.52
40102;SPS30;25814;48.550;9.108;2023-06-26T04:00:10;0.00;0.00;0.00;0.00;0.00;0.00;0.00;0.00;0.00;1.52
40102;SPS30;25814;48.550;9.108;2023-06-26T04:02:38;0.00;0.00;0.00;0.00;0.00;0.00;0.00;0.00;0.00;1.52
40102;SPS30;25814;48.550;9.108;2023-06-26T04:05:04;0.00;0.00;0.00;0.00;0.00;0.00;0.00;0.00;0.00;1.52
40102;SPS30;25814;48.550;9.108;2023-06-26T04:07:30;0.00;0.00;0.00;0.00;0.00;0.00;0.00;0.00;0.00;1.52
40102;SPS30;25814;48.550;9.108;2023-06-26T04:09:59;0.00;0.00;0.00;0.00;0.00;0.00;0.00;0.00;0.00;1.52
40102;SPS30;25814;48.550;9.108;2023-06-26T04:12:25;0.00;0.00;0.00;0.00;0.00;0.00;0.00;0.00;0.00;1.52
40102;SPS30;25814;48.550;9.108;2023-06-26T04:14:51;0.00;0.00;0.00;0.00;0.00;0.00;0.00;0.00;0.00;1.52
40102;SPS30;25814;48.550;9.108;2023-06-26T04:17:17;0.00;0.00;0.00;0.00;0.00;0.00;0.00;0.00;0.00;1.52
40102;SPS30;25814;48.550;9.108;2023-06-26T04:19:43;0.00;0.00;0.00;0.00;0.00;0.00;0.00;0.00;0.00;1.52
40102;SPS30;25814;48.550;9.108;2023-06-26T04:22:09;0.00;0.00;0.00;0.00;0.00;0.00;0.00;0.00;0.00;1.52
40102;SPS30;25814;48.550;9.108;2023-06-26T04:24:35;0.00;0.00;0.00;0.00;0.00;0.00;0.00;0.00;0.00;1.52
40102;SPS30;25814;48.550;9.108;2023-06-26T04:27:01;0.00;0.00;0.00;0.00;0.00;0.00;0.00;0.00;0.00;1.52
40102;SPS30;25814;48.550;9.108;2023-06-26T04:29:28;0.00;0.00;0.00;0.00;0.00;0.00;0.00;0.00;0.00;1.52
40102;SPS30;25814;48.550;9.108;2023-06-26T04:31:54;0.00;0.00;0.00;0.00;0.00;0.00;0.00;0.00;0.00;1.52
40102;SPS30;25814;48.550;9.108;2023-06-26T04:34:27;0.00;0.00;0.00;0.00;0.00;0.00;0.00;0.00;0.00;1.52
40102;SPS30;25814;48.550;9.108;2023-06-26T04:36:53;0.00;0.00;0.00;0.00;0.00;0.00;0.00;0.00;0.00;1.52
40102;SPS30;25814;48.550;9.108;2023-06-26T04:39:19;0.00;0.00;0.00;0.00;0.00;0.00;0.00;0.00;0.00;1.52
40102;SPS30;25814;48.550;9.108;2023-06-26T04:41:45;0.00;0.00;0.00;0.00;0.00;0.00;0.00;0.00;0.00;1.52
40102;SPS30;25814;48.550;9.108;2023-06-26T04:44:12;0.00;0.00;0.00;0.00;0.00;0.00;0.00;0.00;0.00;1.52
40102;SPS30;25814;48.550;9.108;2023-06-26T04:46:38;0.00;0.00;0.00;0.00;0.00;0.00;0.00;0.00;0.00;1.52
40102;SPS30;25814;48.550;9.108;2023-06-26T04:49:10;0.00;0.00;0.00;0.00;0.00;0.00;0.00;0.00;0.00;1.52
40102;SPS30;25814;48.550;9.108;2023-06-26T04:51:36;0.00;0.00;0.00;0.00;0.00;0.00;0.00;0.00;0.00;1.52
40102;SPS30;25814;48.550;9.108;2023-06-26T04:54:06;0.00;0.00;0.00;0.00;0.00;0.00;0.00;0.00;0.00;1.52
40102;SPS30;25814;48.550;9.108;2023-06-26T04:56:33;0.00;0.00;0.00;0.00;0.00;0.00;0.00;0.00;0.00;1.52
40102;SPS30;25814;48.550;9.108;2023-06-26T04:58:59;0.00;0.00;0.00;0.00;0.00;0.00;0.00;0.00;0.00;1.52
40102;SPS30;25814;48.550;9.108;2023-06-26T05:01:25;0.00;0.00;0.00;0.00;0.00;0.00;0.00;0.00;0.00;1.52
40102;SPS30;25814;48.550;9.108;2023-06-26T05:03:54;0.00;0.00;0.00;0.00;0.00;0.00;0.00;0.00;0.00;1.52
40102;SPS30;25814;48.550;9.108;2023-06-26T05:06:29;0.00;0.00;0.00;0.00;0.00;0.00;0.00;0.00;0.00;1.52
40102;SPS30;25814;48.550;9.108;2023-06-26T05:08:56;0.00;0.00;0.00;0.00;0.00;0.00;0.00;0.00;0.00;1.52
40102;SPS30;25814;48.550;9.108;2023-06-26T05:11:22;0.00;0.00;0.00;0.00;0.00;0.00;0.00;0.00;0.00;1.52
40102;SPS30;25814;48.550;9.108;2023-06-26T05:13:48;0.00;0.00;0.00;0.00;0.00;0.00;0.00;0.00;0.00;1.52
40102;SPS30;25814;48.550;9.108;2023-06-26T05:16:15;0.00;0.00;0.00;0.00;0.00;0.00;0.00;0.00;0.00;1.52
40102;SPS30;25814;48.550;9.108;2023-06-26T05:18:41;0.00;0.00;0.00;0.00;0.00;0.00;0.00;0.00;0.00;1.52
40102;SPS30;25814;48.550;9.108;2023-06-26T05:21:07;0.00;0.00;0.00;0.00;0.00;0.00;0.00;0.00;0.00;1.52
40102;SPS30;25814;48.550;9.108;2023-06-26T05:23:34;0.00;0.00;0.00;0.00;0.00;0.00;0.00;0.00;0.00;1.52
40102;SPS30;25814;48.550;9.108;2023-06-26T05:26:01;0.00;0.00;0.00;0.00;0.00;0.00;0.00;0.00;0.00;1.52
40102;SPS30;25814;48.550;9.108;2023-06-26T05:28:28;0.00;0.00;0.00;0.00;0.00;0.00;0.00;0.00;0.00;1.52
40102;SPS30;25814;48.550;9.108;2023-06-26T05:30:58;0.00;0.00;0.00;0.00;0.00;0.00;0.00;0.00;0.00;1.52
40102;SPS30;25814;48.550;9.108;2023-06-26T05:33:25;0.00;0.00;0.00;0.00;0.00;0.00;0.00;0.00;0.00;1.52
40102;SPS30;25814;48.550;9.108;2023-06-26T05:35:52;0.00;0.00;0.00;0.00;0.00;0.00;0.00;0.00;0.00;1.52
40102;SPS30;25814;48.550;9.108;2023-06-26T05:38:20;0.00;0.00;0.00;0.00;0.00;0.00;0.00;0.00;0.00;1.52
40102;SPS30;25814;48.550;9.108;2023-06-26T05:40:46;0.00;0.00;0.00;0.00;0.00;0.00;0.00;0.00;0.00;1.52
40102;SPS30;25814;48.550;9.108;2023-06-26T05:43:13;0.00;0.00;0.00;0.00;0.00;0.00;0.00;0.00;0.00;1.52
40102;SPS30;25814;48.550;9.108;2023-06-26T05:45:39;0.00;0.00;0.00;0.00;0.00;0.00;0.00;0.00;0.00;1.52
40102;SPS30;25814;48.550;9.108;2023-06-26T05:48:06;0.00;0.00;0.00;0.00;0.00;0.00;0.00;0.00;0.00;1.52
40102;SPS30;25814;48.550;9.108;2023-06-26T05:50:32;0.00;0.00;0.00;0.00;0.00;0.00;0.00;0.00;0.00;1.52
40102;SPS30;25814;48.550;9.108;2023-06-26T05:52:58;0.00;0.00;0.00;0.00;0.00;0.00;0.00;0.00;0.00;1.52
40102;SPS30;25814;48.550;9.108;2023-06-26T05:55:24;0.00;0.00;0.00;0.00;0.00;0.00;0.00;0.00;0.00;1.52
40102;SPS30;25814;48.550;9.108;2023-06-26T05:57:51;0.00;0.00;0.00;0.00;0.00;0.00;0.00;0.00;0.00;1.52
40102;SPS30;25814;48.550;9.108;2023-06-26T06:00:19;0.00;0.00;0.00;0.00;0.00;0.00;0.00;0.00;0.00;1.52
40102;SPS30;25814;48.550;9.108;2023-06-26T06:02:45;0.00;0.00;0.00;0.00;0.00;0.00;0.00;0.00;0.00;1.52
40102;SPS30;25814;48.550;9.108;2023-06-26T06:05:11;0.00;0.00;0.00;0.00;0.00;0.00;0.00;0.00;0.00;1.52
40102;SPS30;25814;48.550;9.108;2023-06-26T06:07:37;0.00;0.00;0.00;0.00;0.00;0.00;0.00;0.00;0.00;1.52
40102;SPS30;25814;48.550;9.108;2023-06-26T06:10:04;0.00;0.00;0.00;0.00;0.00;0.00;0.00;0.00;0.00;1.52
40102;SPS30;25814;48.550;9.108;2023-06-26T06:12:30;0.00;0.00;0.00;0.00;0.00;0.00;0.00;0.00;0.00;1.52
40102;SPS30;25814;48.550;9.108;2023-06-26T06:14:56;0.00;0.00;0.00;0.00;0.00;0.00;0.00;0.00;0.00;1.52
40102;SPS30;25814;48.550;9.108;2023-06-26T06:17:22;0.00;0.00;0.00;0.00;0.00;0.00;0.00;0.00;0.00;1.52
40102;SPS30;25814;48.550;9.108;2023-06-26T06:19:49;0.00;0.00;0.00;0.00;0.00;0.00;0.00;0.00;0.00;1.52
40102;SPS30;25814;48.550;9.108;2023-06-26T06:22:15;0.00;0.00;0.00;0.00;0.00;0.00;0.00;0.00;0.00;1.52
40102;SPS30;25814;48.550;9.108;2023-06-26T06:24:42;0.00;0.00;0.00;0.00;0.00;0.00;0.00;0.00;0.00;1.52
40102;SPS30;25814;48.550;9.108;2023-06-26T06:27:09;0.00;0.00;0.00;0.00;0.00;0.00;0.00;0.00;0.00;1.52
40102;SPS30;25814;48.550;9.108;2023-06-26T06:29:35;0.00;0.00;0.00;0.00;0.00;0.00;0.00;0.00;0.00;1.52
40102;SPS30;25814;48.550;9.108;2023-06-26T06:32:01;0.00;0.00;0.00;0.00;0.00;0.00;0.00;0.00;0.00;1.52
40102;SPS30;25814;48.550;9.108;2023-06-26T06:34:27;0.00;0.00;0.00;0.00;0.00;0.00;0.00;0.00;0.00;1.52
40102;SPS30;25814;48.550;9.108;2023-06-26T06:36:53;0.00;0.00;0.00;0.00;0.00;0.00;0.00;0.00;0.00;1.52
40102;SPS30;25814;48.550;9.108;2023-06-26T06:39:19;0.00;0.00;0.00;0.00;0.00;0.00;0.00;0.00;0.00;1.52
40102;SPS30;25814;48.550;9.108;2023-06-26T06:41:45;0.00;0.00;0.00;0.00;0.00;0.00;0.00;0.00;0.00;1.52
40102;SPS30;25814;48.550;9.108;2023-06-26T06:44:11;0.00;0.00;0.00;0.00;0.00;0.00;0.00;0.00;0.00;1.52
40102;SPS30;25814;48.550;9.108;2023-06-26T06:46:37;0.00;0.00;0.00;0.00;0.00;0.00;0.00;0.00;0.00;1.52
40102;SPS30;25814;48.550;9.108;2023-06-26T06:49:03;0.00;0.00;0.00;0.00;0.00;0.00;0.00;0.00;0.00;1.52
40102;SPS30;25814;48.550;9.108;2023-06-26T06:51:30;0.00;0.00;0.00;0.00;0.00;0.00;0.00;0.00;0.00;1.52
40102;SPS30;25814;48.550;9.108;2023-06-26T06:53:56;0.00;0.00;0.00;0.00;0.00;0.00;0.00;0.00;0.00;1.52
40102;SPS30;25814;48.550;9.108;2023-06-26T06:56:22;0.00;0.00;0.00;0.00;0.00;0.00;0.00;0.00;0.00;1.52
40102;SPS30;25814;48.550;9.108;2023-06-26T06:58:48;0.00;0.00;0.00;0.00;0.00;0.00;0.00;0.00;0.00;1.52
40102;SPS30;25814;48.550;9.108;2023-06-26T07:01:14;0.00;0.00;0.00;0.00;0.00;0.00;0.00;0.00;0.00;1.52
40102;SPS30;25814;48.550;9.108;2023-06-26T07:03:40;0.00;0.00;0.00;0.00;0.00;0.00;0.00;0.00;0.00;1.52
40102;SPS30;25814;48.550;9.108;2023-06-26T07:06:07;0.00;0.00;0.00;0.00;0.00;0.00;0.00;0.00;0.00;1.52
40102;SPS30;25814;48.550;9.108;2023-06-26T07:08:33;0.00;0.00;0.00;0.00;0.00;0.00;0.00;0.00;0.00;1.52
40102;SPS30;25814;48.550;9.108;2023-06-26T07:10:59;0.00;0.00;0.00;0.00;0.00;0.00;0.00;0.00;0.00;1.52
40102;SPS30;25814;48.550;9.108;2023-06-26T07:13:25;0.00;0.00;0.00;0.00;0.00;0.00;0.00;0.00;0.00;1.52
40102;SPS30;25814;48.550;9.108;2023-06-26T07:15:51;0.00;0.00;0.00;0.00;0.00;0.00;0.00;0.00;0.00;1.52
40102;SPS30;25814;48.550;9.108;2023-06-26T07:18:17;0.00;0.00;0.00;0.00;0.00;0.00;0.00;0.00;0.00;1.52
40102;SPS30;25814;48.550;9.108;2023-06-26T07:20:43;0.00;0.00;0.00;0.00;0.00;0.00;0.00;0.00;0.00;1.52
40102;SPS30;25814;48.550;9.108;2023-06-26T07:23:09;0.00;0.00;0.00;0.00;0.00;0.00;0.00;0.00;0.00;1.52
40102;SPS30;25814;48.550;9.108;2023-06-26T07:25:35;0.00;0.00;0.00;0.00;0.00;0.00;0.00;0.00;0.00;1.52
40102;SPS30;25814;48.550;9.108;2023-06-26T07:28:02;0.00;0.00;0.00;0.00;0.00;0.00;0.00;0.00;0.00;1.52
40102;SPS30;25814;48.550;9.108;2023-06-26T07:30:29;0.00;0.00;0.00;0.00;0.00;0.00;0.00;0.00;0.00;1.52
40102;SPS30;25814;48.550;9.108;2023-06-26T07:32:55;0.00;0.00;0.00;0.00;0.00;0.00;0.00;0.00;0.00;1.52
40102;SPS30;25814;48.550;9.108;2023-06-26T07:35:21;0.00;0.00;0.00;0.00;0.00;0.00;0.00;0.00;0.00;1.52
40102;SPS30;25814;48.550;9.108;2023-06-26T07:37:47;0.00;0.00;0.00;0.00;0.00;0.00;0.00;0.00;0.00;1.52
40102;SPS30;25814;48.550;9.108;2023-06-26T07:40:13;0.00;0.00;0.00;0.00;0.00;0.00;0.00;0.00;0.00;1.52
40102;SPS30;25814;48.550;9.108;2023-06-26T07:42:42;0.00;0.00;0.00;0.00;0.00;0.00;0.00;0.00;0.00;1.52
40102;SPS30;25814;48.550;9.108;2023-06-26T07:45:09;0.00;0.00;0.00;0.00;0.00;0.00;0.00;0.00;0.00;1.52
40102;SPS30;25814;48.550;9.108;2023-06-26T07:47:40;0.00;0.00;0.00;0.00;0.00;0.00;0.00;0.00;0.00;1.52
40102;SPS30;25814;48.550;9.108;2023-06-26T07:50:06;0.00;0.00;0.00;0.00;0.00;0.00;0.00;0.00;0.00;1.52
40102;SPS30;25814;48.550;9.108;2023-06-26T07:52:34;0.00;0.00;0.00;0.00;0.00;0.00;0.00;0.00;0.00;1.52
40102;SPS30;25814;48.550;9.108;2023-06-26T07:55:00;0.00;0.00;0.00;0.00;0.00;0.00;0.00;0.00;0.00;1.52
40102;SPS30;25814;48.550;9.108;2023-06-26T07:57:26;0.00;0.00;0.00;0.00;0.00;0.00;0.00;0.00;0.00;1.52
40102;SPS30;25814;48.550;9.108;2023-06-26T07:59:52;0.00;0.00;0.00;0.00;0.00;0.00;0.00;0.00;0.00;1.52
40102;SPS30;25814;48.550;9.108;2023-06-26T08:02:18;0.00;0.00;0.00;0.00;0.00;0.00;0.00;0.00;0.00;1.52
40102;SPS30;25814;48.550;9.108;2023-06-26T08:04:45;0.00;0.00;0.00;0.00;0.00;0.00;0.00;0.00;0.00;1.52
40102;SPS30;25814;48.550;9.108;2023-06-26T08:07:11;14529.47;13565.97;8748.49;2644.07;21901.65;21739.46;20715.50;15062.00;5883.28;1.49
40102;SPS30;25814;48.550;9.108;2023-06-26T08:09:39;22515.65;21031.77;13612.38;4203.42;34779.01;34529.06;32951.74;24238.37;9942.77;1.43
40102;SPS30;25814;48.550;9.108;2023-06-26T08:12:05;8551.32;7983.00;5141.40;1541.73;12775.98;12680.33;12076.39;8742.55;3350.18;1.46
40102;SPS30;25814;48.550;9.108;2023-06-26T08:14:31;10575.57;9880.01;6402.24;1990.71;16465.21;16348.02;15608.61;11523.31;4797.61;1.39
40102;SPS30;25814;48.550;9.108;2023-06-26T08:16:57;435.32;416.74;323.82;197.66;1593.46;1590.15;1570.04;1453.82;1098.67;0.81
40102;SPS30;25814;48.550;9.108;2023-06-26T08:19:24;724.65;690.31;518.60;289.77;2341.88;2335.85;2298.87;2087.79;1523.15;0.85
40102;SPS30;25814;48.550;9.108;2023-06-26T08:21:50;917.87;864.60;598.25;254.52;2075.93;2066.83;2009.95;1692.08;1053.03;0.68
40102;SPS30;25814;48.550;9.108;2023-06-26T08:24:17;3.29;3.29;3.29;3.11;24.81;24.80;24.80;24.64;20.87;0.48
40102;SPS30;25814;48.550;9.108;2023-06-26T08:26:46;5.91;5.91;5.91;5.59;44.60;44.60;44.58;44.31;37.52;0.48
40102;SPS30;25814;48.550;9.108;2023-06-26T08:29:13;3.02;3.02;3.02;2.86;22.81;22.81;22.80;22.66;19.19;0.50
40102;SPS30;25814;48.550;9.108;2023-06-26T08:31:40;2.98;2.98;2.98;2.82;22.53;22.53;22.52;22.38;18.95;0.53
40102;SPS30;25814;48.550;9.108;2023-06-26T08:34:08;3.08;3.08;3.08;2.91;23.22;23.21;23.20;23.06;19.53;0.55
40102;SPS30;25814;48.550;9.108;2023-06-26T08:36:34;2.91;2.91;2.91;2.75;21.97;21.97;21.96;21.83;18.48;0.54
40102;SPS30;25814;48.550;9.108;2023-06-26T08:39:00;3.01;3.01;3.00;2.83;22.60;22.60;22.59;22.44;18.99;0.56
40102;SPS30;25814;48.550;9.108;2023-06-26T08:41:27;3.03;3.03;3.01;2.83;22.63;22.63;22.62;22.47;19.01;0.57
40102;SPS30;25814;48.550;9.108;2023-06-26T08:43:53;3.09;3.09;3.07;2.89;23.06;23.06;23.05;22.89;19.36;0.56
40102;SPS30;25814;48.550;9.108;2023-06-26T08:46:19;2.84;2.84;2.84;2.68;21.42;21.42;21.41;21.28;18.02;0.54
40102;SPS30;25814;48.550;9.108;2023-06-26T08:48:48;2.93;2.93;2.93;2.76;22.06;22.06;22.05;21.91;18.55;0.56
40102;SPS30;25814;48.550;9.108;2023-06-26T08:51:19;3.09;3.09;3.08;2.89;23.11;23.11;23.10;22.94;19.41;0.57
40102;SPS30;25814;48.550;9.108;2023-06-26T08:53:57;3.07;3.07;3.06;2.88;22.96;22.96;22.95;22.80;19.29;0.57
40102;SPS30;25814;48.550;9.108;2023-06-26T08:56:28;3.01;3.01;3.00;2.83;22.57;22.56;22.56;22.41;18.96;0.56
40102;SPS30;25814;48.550;9.108;2023-06-26T08:58:58;3.01;3.00;3.00;2.83;22.60;22.59;22.58;22.44;19.00;0.55
40102;SPS30;25814;48.550;9.108;2023-06-26T09:01:25;2.74;2.73;2.71;2.54;20.32;20.31;20.30;20.16;17.04;0.56
40102;SPS30;25814;48.550;9.108;2023-06-26T09:03:51;2.95;2.95;2.94;2.76;22.07;22.07;22.06;21.91;18.54;0.56
40102;SPS30;25814;48.550;9.108;2023-06-26T09:06:17;3.08;3.08;3.04;2.84;22.66;22.66;22.64;22.47;18.98;0.57
40102;SPS30;25814;48.550;9.108;2023-06-26T09:08:43;2.91;2.90;2.86;2.67;21.29;21.28;21.27;21.10;17.81;0.59
40102;SPS30;25814;48.550;9.108;2023-06-26T09:11:09;2.98;2.98;2.96;2.77;22.15;22.15;22.14;21.98;18.58;0.58
40102;SPS30;25814;48.550;9.108;2023-06-26T09:13:36;3.01;3.01;2.98;2.79;22.30;22.30;22.29;22.12;18.70;0.59
40102;SPS30;25814;48.550;9.108;2023-06-26T09:16:04;3.07;3.07;3.03;2.83;22.59;22.58;22.57;22.39;18.92;0.60
40102;SPS30;25814;48.550;9.108;2023-06-26T09:18:35;2.97;2.97;2.95;2.76;22.08;22.07;22.06;21.91;18.52;0.58
40102;SPS30;25814;48.550;9.108;2023-06-26T09:21:08;2.82;2.81;2.79;2.61;20.87;20.86;20.85;20.70;17.50;0.58
40102;SPS30;25814;48.550;9.108;2023-06-26T09:23:35;3.12;3.12;3.09;2.89;23.08;23.08;23.06;22.89;19.35;0.59
40102;SPS30;25814;48.550;9.108;2023-06-26T09:26:02;2.90;2.90;2.87;2.69;21.49;21.49;21.48;21.32;18.02;0.60
40102;SPS30;25814;48.550;9.108;2023-06-26T09:28:34;3.10;3.09;3.05;2.84;22.67;22.66;22.65;22.46;18.96;0.61
40102;SPS30;25814;48.550;9.108;2023-06-26T09:31:04;3.11;3.10;3.06;2.85;22.73;22.73;22.71;22.53;19.02;0.60